sensor_id;sensor_type;location;lat;lon;timestamp;pressure;altitude;pressure_sealevel;temperature;humidity
56241;BME280;42155;53.096;23.226;2023-06-04T00:01:58;100767.09;;;5.72;69.28
56241;BME280;42155;53.096;23.226;2023-06-04T00:03:58;100781.41;;;5.85;69.34
56241;BME280;42155;53.096;23.226;2023-06-04T00:05:58;100779.69;;;5.84;68.74
56241;BME280;42155;53.096;23.226;2023-06-04T00:07:58;100754.38;;;5.62;68.99
56241;BME280;42155;53.096;23.226;2023-06-04T00:09:59;100790.38;;;5.81;69.06
56241;BME280;42155;53.096;23.226;2023-06-04T00:11:59;100780.13;;;5.75;68.93
56241;BME280;42155;53.096;23.226;2023-06-04T00:14:00;100756.50;;;5.54;69.25
56241;BME280;42155;53.096;23.226;2023-06-04T00:16:00;100789.94;;;5.71;68.82
56241;BME280;42155;53.096;23.226;2023-06-04T00:18:00;100786.59;;;5.68;68.93
56241;BME280;42155;53.096;23.226;2023-06-04T00:20:01;100781.50;;;5.65;68.83
56241;BME280;42155;53.096;23.226;2023-06-04T00:22:02;100775.59;;;5.59;69.22
56241;BME280;42155;53.096;23.226;2023-06-04T00:24:02;100779.97;;;5.59;68.95
56241;BME280;42155;53.096;23.226;2023-06-04T00:26:03;100766.63;;;5.45;69.48
56241;BME280;42155;53.096;23.226;2023-06-04T00:28:03;100771.81;;;5.46;69.16
56241;BME280;42155;53.096;23.226;2023-06-04T00:30:04;100764.06;;;5.43;69.46
56241;BME280;42155;53.096;23.226;2023-06-04T00:32:05;100756.47;;;5.37;69.31
56241;BME280;42155;53.096;23.226;2023-06-04T00:34:06;100756.72;;;5.31;69.49
56241;BME280;42155;53.096;23.226;2023-06-04T00:36:06;100767.84;;;5.38;68.95
56241;BME280;42155;53.096;23.226;2023-06-04T00:38:07;100775.66;;;5.39;69.30
56241;BME280;42155;53.096;23.226;2023-06-04T00:40:07;100768.97;;;5.32;69.22
56241;BME280;42155;53.096;23.226;2023-06-04T00:42:08;100780.16;;;5.37;69.60
56241;BME280;42155;53.096;23.226;2023-06-04T00:44:08;100776.59;;;5.38;69.01
56241;BME280;42155;53.096;23.226;2023-06-04T00:46:08;100775.00;;;5.34;69.50
56241;BME280;42155;53.096;23.226;2023-06-04T00:48:09;100780.41;;;5.31;69.02
56241;BME280;42155;53.096;23.226;2023-06-04T00:50:09;100748.81;;;5.12;69.13
56241;BME280;42155;53.096;23.226;2023-06-04T00:52:11;100776.38;;;5.24;69.08
56241;BME280;42155;53.096;23.226;2023-06-04T00:54:15;100780.81;;;5.22;69.44
56241;BME280;42155;53.096;23.226;2023-06-04T00:56:16;100779.13;;;5.21;69.50
56241;BME280;42155;53.096;23.226;2023-06-04T00:58:17;100770.28;;;5.22;69.34
56241;BME280;42155;53.096;23.226;2023-06-04T01:00:17;100775.56;;;5.22;69.84
56241;BME280;42155;53.096;23.226;2023-06-04T01:02:21;100776.44;;;5.22;69.49
56241;BME280;42155;53.096;23.226;2023-06-04T01:06:39;100773.22;;;5.16;69.32
56241;BME280;42155;53.096;23.226;2023-06-04T01:08:43;100776.66;;;5.18;69.36
56241;BME280;42155;53.096;23.226;2023-06-04T01:10:54;100775.84;;;5.16;69.72
56241;BME280;42155;53.096;23.226;2023-06-04T01:12:54;100790.00;;;5.13;69.84
56241;BME280;42155;53.096;23.226;2023-06-04T01:14:55;100787.44;;;5.11;69.64
56241;BME280;42155;53.096;23.226;2023-06-04T01:16:58;100765.81;;;5.05;69.92
56241;BME280;42155;53.096;23.226;2023-06-04T01:19:02;100784.94;;;5.08;69.65
56241;BME280;42155;53.096;23.226;2023-06-04T01:21:08;100741.94;;;4.89;69.84
56241;BME280;42155;53.096;23.226;2023-06-04T01:25:34;100784.16;;;5.06;70.10
56241;BME280;42155;53.096;23.226;2023-06-04T01:27:36;100779.16;;;5.00;69.58
56241;BME280;42155;53.096;23.226;2023-06-04T01:29:36;100782.44;;;5.05;69.44
56241;BME280;42155;53.096;23.226;2023-06-04T01:31:39;100781.53;;;5.06;69.61
56241;BME280;42155;53.096;23.226;2023-06-04T01:33:41;100778.13;;;5.04;70.20
56241;BME280;42155;53.096;23.226;2023-06-04T01:35:42;100779.75;;;5.07;69.81
56241;BME280;42155;53.096;23.226;2023-06-04T01:37:43;100773.53;;;5.08;69.74
56241;BME280;42155;53.096;23.226;2023-06-04T01:39:43;100777.97;;;5.07;69.65
56241;BME280;42155;53.096;23.226;2023-06-04T01:41:44;100783.22;;;5.07;70.10
56241;BME280;42155;53.096;23.226;2023-06-04T01:43:45;100777.97;;;5.07;70.33
56241;BME280;42155;53.096;23.226;2023-06-04T01:45:45;100775.53;;;5.03;70.33
56241;BME280;42155;53.096;23.226;2023-06-04T01:47:46;100742.97;;;4.87;69.78
56241;BME280;42155;53.096;23.226;2023-06-04T01:49:46;100775.28;;;5.09;69.58
56241;BME280;42155;53.096;23.226;2023-06-04T01:51:48;100776.25;;;5.06;70.25
56241;BME280;42155;53.096;23.226;2023-06-04T01:53:48;100769.50;;;5.01;70.40
56241;BME280;42155;53.096;23.226;2023-06-04T01:55:49;100772.91;;;5.03;69.88
56241;BME280;42155;53.096;23.226;2023-06-04T01:57:49;100778.25;;;5.01;70.05
56241;BME280;42155;53.096;23.226;2023-06-04T01:59:50;100772.97;;;5.01;69.87
56241;BME280;42155;53.096;23.226;2023-06-04T02:01:50;100777.50;;;4.98;70.17
56241;BME280;42155;53.096;23.226;2023-06-04T02:03:51;100777.38;;;5.01;70.10
56241;BME280;42155;53.096;23.226;2023-06-04T02:05:51;100772.22;;;4.99;69.74
56241;BME280;42155;53.096;23.226;2023-06-04T02:07:51;100781.81;;;5.00;69.99
56241;BME280;42155;53.096;23.226;2023-06-04T02:09:52;100757.81;;;4.88;69.74
56241;BME280;42155;53.096;23.226;2023-06-04T02:11:54;100783.63;;;4.98;70.02
56241;BME280;42155;53.096;23.226;2023-06-04T02:13:55;100784.47;;;4.99;70.08
56241;BME280;42155;53.096;23.226;2023-06-04T02:15:55;100787.06;;;5.00;70.12
56241;BME280;42155;53.096;23.226;2023-06-04T02:18:11;100772.97;;;5.01;70.12
56241;BME280;42155;53.096;23.226;2023-06-04T02:20:12;100771.13;;;5.03;69.81
56241;BME280;42155;53.096;23.226;2023-06-04T02:22:13;100773.69;;;5.05;69.93
56241;BME280;42155;53.096;23.226;2023-06-04T02:24:15;100767.59;;;5.04;70.30
56241;BME280;42155;53.096;23.226;2023-06-04T02:26:17;100774.56;;;5.05;70.17
56241;BME280;42155;53.096;23.226;2023-06-04T02:28:17;100774.44;;;5.08;70.16
56241;BME280;42155;53.096;23.226;2023-06-04T02:30:18;100767.31;;;5.10;70.27
56241;BME280;42155;53.096;23.226;2023-06-04T02:32:20;100768.88;;;5.15;70.06
56241;BME280;42155;53.096;23.226;2023-06-04T02:34:20;100759.41;;;5.10;69.83
56241;BME280;42155;53.096;23.226;2023-06-04T02:36:23;100772.16;;;5.20;69.56
56241;BME280;42155;53.096;23.226;2023-06-04T02:38:24;100771.38;;;5.18;69.56
56241;BME280;42155;53.096;23.226;2023-06-04T02:40:25;100773.00;;;5.20;69.80
56241;BME280;42155;53.096;23.226;2023-06-04T02:42:26;100772.94;;;5.22;69.69
56241;BME280;42155;53.096;23.226;2023-06-04T02:44:27;100775.31;;;5.28;70.09
56241;BME280;42155;53.096;23.226;2023-06-04T02:46:28;100757.94;;;5.24;69.24
56241;BME280;42155;53.096;23.226;2023-06-04T02:48:28;100781.84;;;5.38;69.39
56241;BME280;42155;53.096;23.226;2023-06-04T02:50:29;100763.44;;;5.38;69.72
56241;BME280;42155;53.096;23.226;2023-06-04T02:52:30;100779.00;;;5.43;69.30
56241;BME280;42155;53.096;23.226;2023-06-04T02:54:31;100774.47;;;5.46;69.36
56241;BME280;42155;53.096;23.226;2023-06-04T02:56:31;100772.59;;;5.48;69.65
56241;BME280;42155;53.096;23.226;2023-06-04T02:58:32;100774.03;;;5.55;69.47
56241;BME280;42155;53.096;23.226;2023-06-04T03:00:32;100774.03;;;5.55;69.67
56241;BME280;42155;53.096;23.226;2023-06-04T03:02:32;100775.31;;;5.66;69.71
56241;BME280;42155;53.096;23.226;2023-06-04T03:04:33;100771.59;;;5.70;69.67
56241;BME280;42155;53.096;23.226;2023-06-04T03:06:33;100773.16;;;5.74;69.60
56241;BME280;42155;53.096;23.226;2023-06-04T03:08:34;100776.44;;;5.79;68.90
56241;BME280;42155;53.096;23.226;2023-06-04T03:10:34;100733.47;;;5.59;69.29
56241;BME280;42155;53.096;23.226;2023-06-04T03:12:34;100776.56;;;5.95;68.86
56241;BME280;42155;53.096;23.226;2023-06-04T03:14:35;100773.50;;;6.04;69.07
56241;BME280;42155;53.096;23.226;2023-06-04T03:16:35;100775.69;;;6.13;68.73
56241;BME280;42155;53.096;23.226;2023-06-04T03:18:36;100784.91;;;6.22;69.08
56241;BME280;42155;53.096;23.226;2023-06-04T03:20:38;100784.47;;;6.31;69.04
56241;BME280;42155;53.096;23.226;2023-06-04T03:22:40;100769.19;;;6.37;69.17
56241;BME280;42155;53.096;23.226;2023-06-04T03:24:47;100771.59;;;6.59;68.43
56241;BME280;42155;53.096;23.226;2023-06-04T03:26:48;100769.53;;;6.99;67.75
56241;BME280;42155;53.096;23.226;2023-06-04T03:28:48;100760.72;;;8.57;65.43
56241;BME280;42155;53.096;23.226;2023-06-04T03:30:52;100747.66;;;11.26;60.18
56241;BME280;42155;53.096;23.226;2023-06-04T03:32:53;100747.53;;;13.73;54.54
56241;BME280;42155;53.096;23.226;2023-06-04T03:34:53;100745.47;;;15.75;50.60
56241;BME280;42155;53.096;23.226;2023-06-04T03:36:56;100726.97;;;17.35;47.71
56241;BME280;42155;53.096;23.226;2023-06-04T03:38:57;100731.06;;;18.56;44.96
56241;BME280;42155;53.096;23.226;2023-06-04T03:40:58;100729.41;;;19.75;42.78
56241;BME280;42155;53.096;23.226;2023-06-04T03:42:58;100737.72;;;21.04;40.63
56241;BME280;42155;53.096;23.226;2023-06-04T03:44:59;100730.91;;;22.26;38.82
56241;BME280;42155;53.096;23.226;2023-06-04T03:46:59;100724.56;;;23.24;37.35
56241;BME280;42155;53.096;23.226;2023-06-04T03:49:00;100725.56;;;24.25;36.06
56241;BME280;42155;53.096;23.226;2023-06-04T03:51:01;100670.66;;;25.01;33.99
56241;BME280;42155;53.096;23.226;2023-06-04T03:53:01;100715.69;;;26.26;32.84
56241;BME280;42155;53.096;23.226;2023-06-04T03:55:01;100706.19;;;27.08;31.51
56241;BME280;42155;53.096;23.226;2023-06-04T03:57:04;100702.94;;;27.96;30.40
56241;BME280;42155;53.096;23.226;2023-06-04T03:59:04;100717.53;;;28.71;29.32
56241;BME280;42155;53.096;23.226;2023-06-04T04:01:05;100707.41;;;29.52;28.33
56241;BME280;42155;53.096;23.226;2023-06-04T04:03:05;100709.72;;;30.15;27.19
56241;BME280;42155;53.096;23.226;2023-06-04T04:05:06;100701.38;;;30.75;26.41
56241;BME280;42155;53.096;23.226;2023-06-04T04:07:06;100700.22;;;31.47;25.67
56241;BME280;42155;53.096;23.226;2023-06-04T04:09:07;100705.44;;;31.88;24.61
56241;BME280;42155;53.096;23.226;2023-06-04T04:11:08;100696.94;;;32.18;24.86
56241;BME280;42155;53.096;23.226;2023-06-04T04:13:08;100693.47;;;32.40;24.65
56241;BME280;42155;53.096;23.226;2023-06-04T04:15:08;100685.22;;;32.57;24.00
56241;BME280;42155;53.096;23.226;2023-06-04T04:17:09;100696.72;;;33.31;22.92
56241;BME280;42155;53.096;23.226;2023-06-04T04:19:09;100691.06;;;34.14;21.92
56241;BME280;42155;53.096;23.226;2023-06-04T04:21:10;100686.69;;;34.87;21.22
56241;BME280;42155;53.096;23.226;2023-06-04T04:23:11;100692.53;;;35.49;21.08
56241;BME280;42155;53.096;23.226;2023-06-04T04:25:12;100670.84;;;36.03;20.02
56241;BME280;42155;53.096;23.226;2023-06-04T04:27:13;100669.72;;;36.55;20.07
56241;BME280;42155;53.096;23.226;2023-06-04T04:29:14;100687.66;;;36.99;19.19
56241;BME280;42155;53.096;23.226;2023-06-04T04:31:20;100682.53;;;37.41;18.42
56241;BME280;42155;53.096;23.226;2023-06-04T04:33:21;100682.31;;;37.77;18.52
56241;BME280;42155;53.096;23.226;2023-06-04T04:35:21;100675.94;;;38.16;18.64
56241;BME280;42155;53.096;23.226;2023-06-04T04:37:27;100669.50;;;38.55;17.68
56241;BME280;42155;53.096;23.226;2023-06-04T04:39:29;100676.53;;;38.76;17.33
56241;BME280;42155;53.096;23.226;2023-06-04T04:41:30;100676.34;;;38.91;16.83
56241;BME280;42155;53.096;23.226;2023-06-04T04:43:34;100677.47;;;39.14;17.13
56241;BME280;42155;53.096;23.226;2023-06-04T04:45:37;100678.59;;;39.37;17.38
56241;BME280;42155;53.096;23.226;2023-06-04T04:47:40;100683.19;;;39.66;16.51
56241;BME280;42155;53.096;23.226;2023-06-04T04:49:40;100679.81;;;39.50;16.36
56241;BME280;42155;53.096;23.226;2023-06-04T04:51:41;100680.91;;;39.30;16.91
56241;BME280;42155;53.096;23.226;2023-06-04T04:53:41;100665.75;;;39.41;16.51
56241;BME280;42155;53.096;23.226;2023-06-04T04:55:42;100678.38;;;39.53;16.08
56241;BME280;42155;53.096;23.226;2023-06-04T04:57:42;100679.72;;;39.36;16.22
56241;BME280;42155;53.096;23.226;2023-06-04T04:59:43;100677.25;;;38.58;16.67
56241;BME280;42155;53.096;23.226;2023-06-04T05:02:09;100683.75;;;37.05;18.31
56241;BME280;42155;53.096;23.226;2023-06-04T05:04:43;100681.84;;;35.05;19.61
56241;BME280;42155;53.096;23.226;2023-06-04T05:06:44;100686.63;;;34.08;20.56
56241;BME280;42155;53.096;23.226;2023-06-04T05:08:48;100687.91;;;33.29;21.09
56241;BME280;42155;53.096;23.226;2023-06-04T05:10:50;100691.72;;;32.51;21.33
56241;BME280;42155;53.096;23.226;2023-06-04T05:12:59;100664.00;;;31.33;22.27
56241;BME280;42155;53.096;23.226;2023-06-04T05:15:02;100688.94;;;30.37;23.10
56241;BME280;42155;53.096;23.226;2023-06-04T05:17:03;100699.06;;;29.10;23.95
56241;BME280;42155;53.096;23.226;2023-06-04T05:19:07;100694.50;;;28.35;24.34
56241;BME280;42155;53.096;23.226;2023-06-04T05:21:07;100707.63;;;27.88;25.25
56241;BME280;42155;53.096;23.226;2023-06-04T05:23:08;100700.75;;;27.21;26.19
56241;BME280;42155;53.096;23.226;2023-06-04T05:28:11;100705.63;;;26.33;27.11
56241;BME280;42155;53.096;23.226;2023-06-04T05:30:12;100688.19;;;25.81;27.19
56241;BME280;42155;53.096;23.226;2023-06-04T05:32:13;100714.00;;;25.57;27.88
56241;BME280;42155;53.096;23.226;2023-06-04T05:34:14;100709.66;;;25.21;28.25
56241;BME280;42155;53.096;23.226;2023-06-04T05:36:15;100646.25;;;24.45;28.23
56241;BME280;42155;53.096;23.226;2023-06-04T05:38:16;100698.47;;;24.47;28.28
56241;BME280;42155;53.096;23.226;2023-06-04T05:40:16;100711.34;;;24.38;28.47
56241;BME280;42155;53.096;23.226;2023-06-04T05:42:18;100646.16;;;23.88;29.70
56241;BME280;42155;53.096;23.226;2023-06-04T05:44:19;100705.41;;;24.34;29.30
56241;BME280;42155;53.096;23.226;2023-06-04T05:46:19;100707.41;;;24.41;29.84
56241;BME280;42155;53.096;23.226;2023-06-04T05:48:20;100702.97;;;24.61;29.59
56241;BME280;42155;53.096;23.226;2023-06-04T05:50:20;100709.78;;;24.78;29.25
56241;BME280;42155;53.096;23.226;2023-06-04T05:52:21;100714.28;;;24.64;29.47
56241;BME280;42155;53.096;23.226;2023-06-04T05:54:22;100716.88;;;24.51;30.02
56241;BME280;42155;53.096;23.226;2023-06-04T05:56:23;100705.31;;;24.43;29.69
56241;BME280;42155;53.096;23.226;2023-06-04T05:58:24;100712.91;;;24.54;29.78
56241;BME280;42155;53.096;23.226;2023-06-04T06:00:24;100708.03;;;24.71;30.17
56241;BME280;42155;53.096;23.226;2023-06-04T06:02:25;100706.66;;;24.81;29.26
56241;BME280;42155;53.096;23.226;2023-06-04T06:04:25;100712.03;;;25.03;28.67
56241;BME280;42155;53.096;23.226;2023-06-04T06:06:26;100714.19;;;25.14;28.38
56241;BME280;42155;53.096;23.226;2023-06-04T06:08:26;100714.47;;;25.19;28.61
56241;BME280;42155;53.096;23.226;2023-06-04T06:10:26;100716.38;;;25.32;27.88
56241;BME280;42155;53.096;23.226;2023-06-04T06:12:27;100701.53;;;25.28;28.67
56241;BME280;42155;53.096;23.226;2023-06-04T06:14:27;100717.22;;;25.32;28.87
56241;BME280;42155;53.096;23.226;2023-06-04T06:16:27;100715.75;;;25.30;28.11
56241;BME280;42155;53.096;23.226;2023-06-04T06:18:28;100715.53;;;25.25;27.94
56241;BME280;42155;53.096;23.226;2023-06-04T06:20:28;100712.38;;;25.21;27.83
56241;BME280;42155;53.096;23.226;2023-06-04T06:22:28;100723.63;;;25.18;27.29
56241;BME280;42155;53.096;23.226;2023-06-04T06:24:29;100722.63;;;25.19;27.36
56241;BME280;42155;53.096;23.226;2023-06-04T06:26:29;100720.81;;;25.33;27.81
56241;BME280;42155;53.096;23.226;2023-06-04T06:28:30;100713.94;;;25.44;27.79
56241;BME280;42155;53.096;23.226;2023-06-04T06:30:30;100719.59;;;25.49;28.50
56241;BME280;42155;53.096;23.226;2023-06-04T06:32:30;100724.88;;;25.57;27.50
56241;BME280;42155;53.096;23.226;2023-06-04T06:34:31;100713.53;;;25.47;27.39
56241;BME280;42155;53.096;23.226;2023-06-04T06:36:31;100717.88;;;25.41;27.28
56241;BME280;42155;53.096;23.226;2023-06-04T06:38:31;100717.28;;;25.46;28.08
56241;BME280;42155;53.096;23.226;2023-06-04T06:40:32;100672.00;;;25.11;27.68
56241;BME280;42155;53.096;23.226;2023-06-04T06:42:32;100716.91;;;25.55;27.93
56241;BME280;42155;53.096;23.226;2023-06-04T06:44:33;100719.00;;;25.53;27.37
56241;BME280;42155;53.096;23.226;2023-06-04T06:46:33;100660.28;;;25.11;27.96
56241;BME280;42155;53.096;23.226;2023-06-04T06:48:33;100719.84;;;25.54;27.91
56241;BME280;42155;53.096;23.226;2023-06-04T06:50:36;100698.09;;;25.54;27.93
56241;BME280;42155;53.096;23.226;2023-06-04T06:52:37;100712.78;;;25.66;27.23
56241;BME280;42155;53.096;23.226;2023-06-04T06:54:38;100706.47;;;25.59;27.49
56241;BME280;42155;53.096;23.226;2023-06-04T06:56:38;100715.22;;;25.54;27.57
56241;BME280;42155;53.096;23.226;2023-06-04T06:58:39;100719.78;;;25.40;28.07
56241;BME280;42155;53.096;23.226;2023-06-04T07:00:39;100712.66;;;25.39;27.77
56241;BME280;42155;53.096;23.226;2023-06-04T07:02:40;100721.66;;;25.47;28.04
56241;BME280;42155;53.096;23.226;2023-06-04T07:04:40;100715.69;;;25.58;28.43
56241;BME280;42155;53.096;23.226;2023-06-04T07:06:41;100700.66;;;25.69;27.49
56241;BME280;42155;53.096;23.226;2023-06-04T07:08:42;100704.63;;;25.66;29.09
56241;BME280;42155;53.096;23.226;2023-06-04T07:10:45;100715.69;;;25.58;28.50
56241;BME280;42155;53.096;23.226;2023-06-04T07:12:49;100709.72;;;25.34;29.29
56241;BME280;42155;53.096;23.226;2023-06-04T07:14:50;100678.38;;;25.04;28.80
56241;BME280;42155;53.096;23.226;2023-06-04T07:16:50;100708.69;;;25.01;28.98
56241;BME280;42155;53.096;23.226;2023-06-04T07:18:52;100713.47;;;24.71;28.13
56241;BME280;42155;53.096;23.226;2023-06-04T07:20:53;100718.63;;;24.37;28.12
56241;BME280;42155;53.096;23.226;2023-06-04T07:22:58;100709.03;;;23.99;29.09
56241;BME280;42155;53.096;23.226;2023-06-04T07:25:05;100710.44;;;23.58;29.61
56241;BME280;42155;53.096;23.226;2023-06-04T07:27:12;100705.63;;;23.24;29.64
56241;BME280;42155;53.096;23.226;2023-06-04T07:29:13;100705.63;;;23.24;29.62
56241;BME280;42155;53.096;23.226;2023-06-04T07:31:18;100698.25;;;23.18;29.65
56241;BME280;42155;53.096;23.226;2023-06-04T07:33:22;100705.34;;;23.19;30.13
56241;BME280;42155;53.096;23.226;2023-06-04T07:35:23;100695.34;;;23.34;29.98
56241;BME280;42155;53.096;23.226;2023-06-04T07:37:24;100698.03;;;23.64;30.01
56241;BME280;42155;53.096;23.226;2023-06-04T07:39:25;100689.03;;;23.78;30.12
56241;BME280;42155;53.096;23.226;2023-06-04T07:41:25;100690.63;;;23.94;29.51
56241;BME280;42155;53.096;23.226;2023-06-04T07:43:25;100689.41;;;23.97;29.38
56241;BME280;42155;53.096;23.226;2023-06-04T07:45:26;100686.69;;;23.75;29.42
56241;BME280;42155;53.096;23.226;2023-06-04T07:47:26;100681.66;;;23.72;28.74
56241;BME280;42155;53.096;23.226;2023-06-04T07:49:30;100703.09;;;23.88;28.18
56241;BME280;42155;53.096;23.226;2023-06-04T07:51:31;100701.09;;;23.97;28.30
56241;BME280;42155;53.096;23.226;2023-06-04T07:53:42;100691.34;;;24.03;28.97
56241;BME280;42155;53.096;23.226;2023-06-04T07:55:43;100679.09;;;23.85;28.60
56241;BME280;42155;53.096;23.226;2023-06-04T07:57:44;100687.41;;;23.84;28.62
56241;BME280;42155;53.096;23.226;2023-06-04T07:59:44;100672.56;;;23.44;28.13
56241;BME280;42155;53.096;23.226;2023-06-04T08:01:44;100700.19;;;23.54;28.42
56241;BME280;42155;53.096;23.226;2023-06-04T08:03:45;100701.09;;;23.61;28.73
56241;BME280;42155;53.096;23.226;2023-06-04T08:05:45;100697.94;;;23.72;28.16
56241;BME280;42155;53.096;23.226;2023-06-04T08:07:46;100690.13;;;23.84;28.17
56241;BME280;42155;53.096;23.226;2023-06-04T08:09:46;100698.06;;;23.85;28.40
56241;BME280;42155;53.096;23.226;2023-06-04T08:11:46;100704.97;;;23.88;28.08
56241;BME280;42155;53.096;23.226;2023-06-04T08:13:47;100697.09;;;23.72;27.87
56241;BME280;42155;53.096;23.226;2023-06-04T08:15:47;100678.34;;;23.41;29.15
56241;BME280;42155;53.096;23.226;2023-06-04T08:17:48;100690.25;;;23.61;29.35
56241;BME280;42155;53.096;23.226;2023-06-04T08:20:08;100698.44;;;23.82;28.56
56241;BME280;42155;53.096;23.226;2023-06-04T08:22:23;100684.78;;;23.91;28.00
56241;BME280;42155;53.096;23.226;2023-06-04T08:24:32;100688.50;;;23.89;28.60
56241;BME280;42155;53.096;23.226;2023-06-04T08:26:42;100631.25;;;23.42;27.81
56241;BME280;42155;53.096;23.226;2023-06-04T08:28:43;100687.34;;;23.62;28.65
56241;BME280;42155;53.096;23.226;2023-06-04T08:30:43;100687.81;;;23.66;29.22
56241;BME280;42155;53.096;23.226;2023-06-04T08:32:45;100693.41;;;23.79;29.21
56241;BME280;42155;53.096;23.226;2023-06-04T08:34:48;100677.66;;;23.89;29.56
56241;BME280;42155;53.096;23.226;2023-06-04T08:36:49;100689.75;;;23.87;27.81
56241;BME280;42155;53.096;23.226;2023-06-04T08:38:50;100684.75;;;23.69;28.65
56241;BME280;42155;53.096;23.226;2023-06-04T08:40:53;100683.72;;;23.70;28.23
56241;BME280;42155;53.096;23.226;2023-06-04T08:42:58;100678.53;;;23.75;28.36
56241;BME280;42155;53.096;23.226;2023-06-04T08:48:14;100680.19;;;23.55;27.39
56241;BME280;42155;53.096;23.226;2023-06-04T08:50:31;100678.63;;;23.31;28.11
56241;BME280;42155;53.096;23.226;2023-06-04T08:52:35;100672.66;;;23.35;27.82
56241;BME280;42155;53.096;23.226;2023-06-04T08:54:36;100682.25;;;23.53;27.66
56241;BME280;42155;53.096;23.226;2023-06-04T08:56:37;100669.22;;;23.63;27.84
56241;BME280;42155;53.096;23.226;2023-06-04T08:58:43;100674.75;;;23.55;27.06
56241;BME280;42155;53.096;23.226;2023-06-04T09:00:44;100636.03;;;23.25;27.04
56241;BME280;42155;53.096;23.226;2023-06-04T09:02:46;100661.16;;;23.33;27.40
56241;BME280;42155;53.096;23.226;2023-06-04T09:04:48;100679.06;;;23.49;27.18
56241;BME280;42155;53.096;23.226;2023-06-04T09:06:51;100651.25;;;23.41;28.37
56241;BME280;42155;53.096;23.226;2023-06-04T09:08:56;100681.09;;;23.62;28.16
56241;BME280;42155;53.096;23.226;2023-06-04T09:10:57;100651.31;;;23.47;27.86
56241;BME280;42155;53.096;23.226;2023-06-04T09:13:01;100674.31;;;23.36;27.62
56241;BME280;42155;53.096;23.226;2023-06-04T09:15:02;100678.16;;;23.27;28.79
56241;BME280;42155;53.096;23.226;2023-06-04T09:17:03;100669.09;;;23.20;28.16
56241;BME280;42155;53.096;23.226;2023-06-04T09:19:03;100673.44;;;23.00;28.47
56241;BME280;42155;53.096;23.226;2023-06-04T09:21:06;100672.72;;;22.68;28.57
56241;BME280;42155;53.096;23.226;2023-06-04T09:23:13;100673.25;;;22.49;29.41
56241;BME280;42155;53.096;23.226;2023-06-04T09:25:24;100675.88;;;22.57;30.68
56241;BME280;42155;53.096;23.226;2023-06-04T09:27:26;100676.31;;;22.46;30.10
56241;BME280;42155;53.096;23.226;2023-06-04T09:29:26;100681.31;;;22.19;29.62
56241;BME280;42155;53.096;23.226;2023-06-04T09:31:26;100683.34;;;21.86;29.84
56241;BME280;42155;53.096;23.226;2023-06-04T09:33:27;100681.00;;;21.60;30.56
56241;BME280;42155;53.096;23.226;2023-06-04T09:35:28;100679.59;;;21.41;30.69
56241;BME280;42155;53.096;23.226;2023-06-04T09:37:28;100650.94;;;21.24;30.02
56241;BME280;42155;53.096;23.226;2023-06-04T09:39:29;100676.97;;;21.56;30.27
56241;BME280;42155;53.096;23.226;2023-06-04T09:41:29;100657.47;;;21.69;30.25
56241;BME280;42155;53.096;23.226;2023-06-04T09:43:30;100644.28;;;21.74;30.15
56241;BME280;42155;53.096;23.226;2023-06-04T09:45:31;100668.16;;;22.08;31.30
56241;BME280;42155;53.096;23.226;2023-06-04T09:47:42;100672.28;;;22.42;30.68
56241;BME280;42155;53.096;23.226;2023-06-04T09:49:42;100673.09;;;22.65;29.90
56241;BME280;42155;53.096;23.226;2023-06-04T09:51:47;100661.53;;;22.71;29.38
56241;BME280;42155;53.096;23.226;2023-06-04T09:53:55;100661.53;;;22.71;29.14
56241;BME280;42155;53.096;23.226;2023-06-04T09:56:00;100626.53;;;22.55;29.64
56241;BME280;42155;53.096;23.226;2023-06-04T09:58:01;100659.13;;;22.76;28.73
56241;BME280;42155;53.096;23.226;2023-06-04T10:00:04;100662.19;;;22.73;29.40
56241;BME280;42155;53.096;23.226;2023-06-04T10:02:06;100658.91;;;22.78;28.08
56241;BME280;42155;53.096;23.226;2023-06-04T10:04:09;100648.28;;;22.76;29.94
56241;BME280;42155;53.096;23.226;2023-06-04T10:06:10;100647.16;;;22.85;30.15
56241;BME280;42155;53.096;23.226;2023-06-04T10:08:12;100655.22;;;22.94;29.24
56241;BME280;42155;53.096;23.226;2023-06-04T10:10:20;100652.88;;;22.91;29.09
56241;BME280;42155;53.096;23.226;2023-06-04T10:12:25;100662.09;;;22.81;30.00
56241;BME280;42155;53.096;23.226;2023-06-04T10:14:41;100652.06;;;22.90;29.71
56241;BME280;42155;53.096;23.226;2023-06-04T10:16:42;100651.84;;;22.92;29.00
56241;BME280;42155;53.096;23.226;2023-06-04T10:18:43;100655.38;;;22.77;29.33
56241;BME280;42155;53.096;23.226;2023-06-04T10:20:44;100665.50;;;22.46;29.59
56241;BME280;42155;53.096;23.226;2023-06-04T10:22:45;100642.16;;;22.30;30.03
56241;BME280;42155;53.096;23.226;2023-06-04T10:24:45;100659.16;;;22.39;30.89
56241;BME280;42155;53.096;23.226;2023-06-04T10:26:47;100651.97;;;22.46;29.66
56241;BME280;42155;53.096;23.226;2023-06-04T10:28:47;100653.56;;;22.40;29.96
56241;BME280;42155;53.096;23.226;2023-06-04T10:30:48;100615.75;;;22.17;30.49
56241;BME280;42155;53.096;23.226;2023-06-04T10:32:49;100646.25;;;22.26;30.07
56241;BME280;42155;53.096;23.226;2023-06-04T10:34:51;100626.78;;;21.84;30.39
56241;BME280;42155;53.096;23.226;2023-06-04T10:36:52;100636.88;;;21.68;31.08
56241;BME280;42155;53.096;23.226;2023-06-04T10:38:54;100647.56;;;21.84;30.17
56241;BME280;42155;53.096;23.226;2023-06-04T10:40:54;100648.72;;;21.90;30.52
56241;BME280;42155;53.096;23.226;2023-06-04T10:42:55;100644.28;;;21.74;30.48